sensor_id;sensor_type;location;lat;lon;timestamp;P1;durP1;ratioP1;P2;durP2;ratioP2
15699;SDS011;7950;42.744;23.174;2023-04-30T00:00:38;5.80;;;4.73;;
15699;SDS011;7950;42.744;23.174;2023-04-30T00:03:06;5.70;;;5.10;;
15699;SDS011;7950;42.744;23.174;2023-04-30T00:05:36;6.57;;;4.83;;
15699;SDS011;7950;42.744;23.174;2023-04-30T00:08:05;6.23;;;5.10;;
15699;SDS011;7950;42.744;23.174;2023-04-30T00:10:33;5.50;;;4.53;;
15699;SDS011;7950;42.744;23.174;2023-04-30T00:13:02;7.00;;;4.83;;
15699;SDS011;7950;42.744;23.174;2023-04-30T00:15:30;6.50;;;4.67;;
15699;SDS011;7950;42.744;23.174;2023-04-30T00:17:59;8.20;;;5.30;;
15699;SDS011;7950;42.744;23.174;2023-04-30T00:20:28;6.50;;;4.90;;
15699;SDS011;7950;42.744;23.174;2023-04-30T00:22:58;6.23;;;5.10;;
15699;SDS011;7950;42.744;23.174;2023-04-30T00:25:26;5.40;;;4.90;;
15699;SDS011;7950;42.744;23.174;2023-04-30T00:27:55;7.30;;;4.80;;
15699;SDS011;7950;42.744;23.174;2023-04-30T00:30:24;5.50;;;4.87;;
15699;SDS011;7950;42.744;23.174;2023-04-30T00:32:52;5.70;;;4.67;;
15699;SDS011;7950;42.744;23.174;2023-04-30T00:35:21;5.63;;;4.63;;
15699;SDS011;7950;42.744;23.174;2023-04-30T00:38:30;7.33;;;4.73;;
15699;SDS011;7950;42.744;23.174;2023-04-30T00:40:58;5.07;;;4.57;;
15699;SDS011;7950;42.744;23.174;2023-04-30T00:43:36;8.23;;;4.83;;
15699;SDS011;7950;42.744;23.174;2023-04-30T00:46:05;8.87;;;4.60;;
15699;SDS011;7950;42.744;23.174;2023-04-30T00:48:34;5.33;;;4.40;;
15699;SDS011;7950;42.744;23.174;2023-04-30T00:51:02;6.63;;;4.80;;
15699;SDS011;7950;42.744;23.174;2023-04-30T00:53:34;5.93;;;4.63;;
15699;SDS011;7950;42.744;23.174;2023-04-30T00:56:04;5.47;;;4.40;;
15699;SDS011;7950;42.744;23.174;2023-04-30T00:58:35;4.93;;;4.43;;
15699;SDS011;7950;42.744;23.174;2023-04-30T01:01:04;7.07;;;4.47;;
15699;SDS011;7950;42.744;23.174;2023-04-30T01:03:33;5.83;;;4.90;;
15699;SDS011;7950;42.744;23.174;2023-04-30T01:06:02;5.17;;;4.20;;
15699;SDS011;7950;42.744;23.174;2023-04-30T01:08:31;6.20;;;4.67;;
15699;SDS011;7950;42.744;23.174;2023-04-30T01:11:06;6.70;;;4.83;;
15699;SDS011;7950;42.744;23.174;2023-04-30T01:13:49;6.70;;;4.10;;
15699;SDS011;7950;42.744;23.174;2023-04-30T01:16:29;6.60;;;4.60;;
15699;SDS011;7950;42.744;23.174;2023-04-30T01:19:08;5.47;;;4.60;;
15699;SDS011;7950;42.744;23.174;2023-04-30T01:21:55;6.83;;;4.20;;
15699;SDS011;7950;42.744;23.174;2023-04-30T01:24:42;4.60;;;4.13;;
15699;SDS011;7950;42.744;23.174;2023-04-30T01:27:47;4.77;;;4.23;;
15699;SDS011;7950;42.744;23.174;2023-04-30T01:30:29;5.97;;;4.83;;
15699;SDS011;7950;42.744;23.174;2023-04-30T01:32:59;5.23;;;4.23;;
15699;SDS011;7950;42.744;23.174;2023-04-30T01:35:33;5.03;;;4.50;;
15699;SDS011;7950;42.744;23.174;2023-04-30T01:38:28;6.87;;;4.63;;
15699;SDS011;7950;42.744;23.174;2023-04-30T01:41:17;6.27;;;4.40;;
15699;SDS011;7950;42.744;23.174;2023-04-30T01:44:18;7.67;;;4.77;;
15699;SDS011;7950;42.744;23.174;2023-04-30T01:47:08;7.33;;;4.20;;
15699;SDS011;7950;42.744;23.174;2023-04-30T01:49:50;7.50;;;5.00;;
15699;SDS011;7950;42.744;23.174;2023-04-30T01:52:36;8.23;;;5.93;;
15699;SDS011;7950;42.744;23.174;2023-04-30T01:55:14;6.83;;;5.53;;
15699;SDS011;7950;42.744;23.174;2023-04-30T01:57:53;6.77;;;6.03;;
15699;SDS011;7950;42.744;23.174;2023-04-30T02:00:27;7.97;;;5.73;;
15699;SDS011;7950;42.744;23.174;2023-04-30T02:02:57;25.90;;;16.03;;
15699;SDS011;7950;42.744;23.174;2023-04-30T02:05:26;22.93;;;14.37;;
15699;SDS011;7950;42.744;23.174;2023-04-30T02:07:54;14.40;;;9.43;;
15699;SDS011;7950;42.744;23.174;2023-04-30T02:10:24;11.70;;;7.97;;
15699;SDS011;7950;42.744;23.174;2023-04-30T02:12:54;6.03;;;5.07;;
15699;SDS011;7950;42.744;23.174;2023-04-30T02:15:23;7.17;;;5.20;;
15699;SDS011;7950;42.744;23.174;2023-04-30T02:17:53;9.90;;;6.50;;
15699;SDS011;7950;42.744;23.174;2023-04-30T02:23:15;6.90;;;4.90;;
15699;SDS011;7950;42.744;23.174;2023-04-30T02:25:44;14.53;;;9.77;;
15699;SDS011;7950;42.744;23.174;2023-04-30T02:28:12;20.90;;;13.10;;
15699;SDS011;7950;42.744;23.174;2023-04-30T02:30:42;9.77;;;6.87;;
15699;SDS011;7950;42.744;23.174;2023-04-30T02:33:11;9.57;;;6.33;;
15699;SDS011;7950;42.744;23.174;2023-04-30T02:35:39;9.53;;;6.40;;
15699;SDS011;7950;42.744;23.174;2023-04-30T02:38:08;8.30;;;6.13;;
15699;SDS011;7950;42.744;23.174;2023-04-30T02:40:36;7.80;;;5.10;;
15699;SDS011;7950;42.744;23.174;2023-04-30T02:43:05;8.30;;;5.73;;
15699;SDS011;7950;42.744;23.174;2023-04-30T02:45:33;8.07;;;5.50;;
15699;SDS011;7950;42.744;23.174;2023-04-30T02:48:03;9.13;;;4.57;;
15699;SDS011;7950;42.744;23.174;2023-04-30T02:50:32;5.17;;;4.30;;
15699;SDS011;7950;42.744;23.174;2023-04-30T02:53:01;8.03;;;4.97;;
15699;SDS011;7950;42.744;23.174;2023-04-30T02:55:29;6.63;;;5.80;;
15699;SDS011;7950;42.744;23.174;2023-04-30T02:57:58;8.93;;;5.63;;
15699;SDS011;7950;42.744;23.174;2023-04-30T03:00:30;8.90;;;5.20;;
15699;SDS011;7950;42.744;23.174;2023-04-30T03:02:58;6.10;;;5.43;;
15699;SDS011;7950;42.744;23.174;2023-04-30T03:05:28;12.57;;;5.60;;
15699;SDS011;7950;42.744;23.174;2023-04-30T03:07:57;11.73;;;5.43;;
15699;SDS011;7950;42.744;23.174;2023-04-30T03:10:25;6.93;;;4.80;;
15699;SDS011;7950;42.744;23.174;2023-04-30T03:12:54;10.00;;;5.77;;
15699;SDS011;7950;42.744;23.174;2023-04-30T03:15:22;11.83;;;7.90;;
15699;SDS011;7950;42.744;23.174;2023-04-30T03:17:51;10.63;;;7.53;;
15699;SDS011;7950;42.744;23.174;2023-04-30T03:20:20;11.37;;;8.57;;
15699;SDS011;7950;42.744;23.174;2023-04-30T03:22:50;9.07;;;7.40;;
15699;SDS011;7950;42.744;23.174;2023-04-30T03:25:18;7.40;;;5.50;;
15699;SDS011;7950;42.744;23.174;2023-04-30T03:27:47;8.33;;;5.83;;
15699;SDS011;7950;42.744;23.174;2023-04-30T03:30:15;8.17;;;5.70;;
15699;SDS011;7950;42.744;23.174;2023-04-30T03:32:44;8.63;;;5.40;;
15699;SDS011;7950;42.744;23.174;2023-04-30T03:38:07;5.87;;;5.27;;
15699;SDS011;7950;42.744;23.174;2023-04-30T03:40:36;9.97;;;5.70;;
15699;SDS011;7950;42.744;23.174;2023-04-30T03:43:04;8.63;;;5.47;;
15699;SDS011;7950;42.744;23.174;2023-04-30T03:45:33;8.43;;;5.97;;
15699;SDS011;7950;42.744;23.174;2023-04-30T03:50:55;9.17;;;5.50;;
15699;SDS011;7950;42.744;23.174;2023-04-30T03:53:25;10.37;;;5.47;;
15699;SDS011;7950;42.744;23.174;2023-04-30T03:55:53;7.50;;;4.80;;
15699;SDS011;7950;42.744;23.174;2023-04-30T03:58:23;6.37;;;5.13;;
15699;SDS011;7950;42.744;23.174;2023-04-30T04:00:55;8.77;;;5.10;;
15699;SDS011;7950;42.744;23.174;2023-04-30T04:03:24;8.37;;;5.33;;
15699;SDS011;7950;42.744;23.174;2023-04-30T04:05:52;7.27;;;5.43;;
15699;SDS011;7950;42.744;23.174;2023-04-30T04:08:21;10.40;;;5.73;;
15699;SDS011;7950;42.744;23.174;2023-04-30T04:10:51;10.73;;;5.33;;
15699;SDS011;7950;42.744;23.174;2023-04-30T04:13:19;10.60;;;5.90;;
15699;SDS011;7950;42.744;23.174;2023-04-30T04:15:48;8.43;;;6.30;;
15699;SDS011;7950;42.744;23.174;2023-04-30T04:18:16;12.17;;;5.63;;
15699;SDS011;7950;42.744;23.174;2023-04-30T04:20:47;7.10;;;5.40;;
15699;SDS011;7950;42.744;23.174;2023-04-30T04:23:16;13.67;;;6.00;;
15699;SDS011;7950;42.744;23.174;2023-04-30T04:25:44;10.87;;;6.03;;
15699;SDS011;7950;42.744;23.174;2023-04-30T04:28:16;7.73;;;5.53;;
15699;SDS011;7950;42.744;23.174;2023-04-30T04:30:45;7.50;;;5.30;;
15699;SDS011;7950;42.744;23.174;2023-04-30T04:33:14;9.77;;;6.07;;
15699;SDS011;7950;42.744;23.174;2023-04-30T04:35:43;9.20;;;6.33;;
15699;SDS011;7950;42.744;23.174;2023-04-30T04:38:17;11.33;;;6.70;;
15699;SDS011;7950;42.744;23.174;2023-04-30T04:40:50;7.67;;;6.20;;
15699;SDS011;7950;42.744;23.174;2023-04-30T04:43:21;10.63;;;6.97;;
15699;SDS011;7950;42.744;23.174;2023-04-30T04:45:49;10.20;;;6.50;;
15699;SDS011;7950;42.744;23.174;2023-04-30T04:48:18;8.47;;;6.43;;
15699;SDS011;7950;42.744;23.174;2023-04-30T04:50:47;10.13;;;6.50;;
15699;SDS011;7950;42.744;23.174;2023-04-30T04:53:15;10.20;;;6.80;;
15699;SDS011;7950;42.744;23.174;2023-04-30T04:55:44;10.27;;;6.07;;
15699;SDS011;7950;42.744;23.174;2023-04-30T04:58:12;10.13;;;6.83;;
15699;SDS011;7950;42.744;23.174;2023-04-30T05:00:42;9.90;;;7.17;;
15699;SDS011;7950;42.744;23.174;2023-04-30T05:03:11;9.63;;;6.63;;
15699;SDS011;7950;42.744;23.174;2023-04-30T05:05:39;9.37;;;6.43;;
15699;SDS011;7950;42.744;23.174;2023-04-30T05:08:08;11.83;;;6.40;;
15699;SDS011;7950;42.744;23.174;2023-04-30T05:10:36;9.27;;;6.57;;
15699;SDS011;7950;42.744;23.174;2023-04-30T05:13:05;9.70;;;6.77;;
15699;SDS011;7950;42.744;23.174;2023-04-30T05:15:33;11.50;;;6.73;;
15699;SDS011;7950;42.744;23.174;2023-04-30T05:18:03;9.40;;;7.30;;
15699;SDS011;7950;42.744;23.174;2023-04-30T05:20:32;10.67;;;6.43;;
15699;SDS011;7950;42.744;23.174;2023-04-30T05:23:00;7.60;;;5.40;;
15699;SDS011;7950;42.744;23.174;2023-04-30T05:25:29;8.17;;;5.20;;
15699;SDS011;7950;42.744;23.174;2023-04-30T05:27:58;9.30;;;6.03;;
15699;SDS011;7950;42.744;23.174;2023-04-30T05:30:26;5.90;;;5.30;;
15699;SDS011;7950;42.744;23.174;2023-04-30T05:35:49;8.17;;;6.50;;
15699;SDS011;7950;42.744;23.174;2023-04-30T05:38:18;7.43;;;5.57;;
15699;SDS011;7950;42.744;23.174;2023-04-30T05:40:47;7.03;;;5.87;;
15699;SDS011;7950;42.744;23.174;2023-04-30T05:43:16;6.93;;;6.23;;
15699;SDS011;7950;42.744;23.174;2023-04-30T05:45:45;9.00;;;5.73;;
15699;SDS011;7950;42.744;23.174;2023-04-30T05:48:13;8.07;;;5.53;;
15699;SDS011;7950;42.744;23.174;2023-04-30T05:50:43;9.57;;;6.53;;
15699;SDS011;7950;42.744;23.174;2023-04-30T05:53:12;9.70;;;6.93;;
15699;SDS011;7950;42.744;23.174;2023-04-30T05:55:40;9.07;;;6.97;;
15699;SDS011;7950;42.744;23.174;2023-04-30T05:58:09;7.40;;;6.27;;
15699;SDS011;7950;42.744;23.174;2023-04-30T06:00:38;6.93;;;6.20;;
15699;SDS011;7950;42.744;23.174;2023-04-30T06:03:07;8.50;;;5.63;;
15699;SDS011;7950;42.744;23.174;2023-04-30T06:11:31;9.40;;;6.77;;
15699;SDS011;7950;42.744;23.174;2023-04-30T06:13:59;7.93;;;6.33;;
15699;SDS011;7950;42.744;23.174;2023-04-30T06:16:28;8.20;;;6.57;;
15699;SDS011;7950;42.744;23.174;2023-04-30T06:18:58;7.77;;;6.67;;
15699;SDS011;7950;42.744;23.174;2023-04-30T06:21:27;11.97;;;7.03;;
15699;SDS011;7950;42.744;23.174;2023-04-30T06:23:57;10.57;;;6.77;;
15699;SDS011;7950;42.744;23.174;2023-04-30T06:26:25;9.17;;;7.37;;
15699;SDS011;7950;42.744;23.174;2023-04-30T06:28:54;10.03;;;7.23;;
15699;SDS011;7950;42.744;23.174;2023-04-30T06:31:23;10.90;;;7.03;;
15699;SDS011;7950;42.744;23.174;2023-04-30T06:33:51;10.47;;;7.23;;
15699;SDS011;7950;42.744;23.174;2023-04-30T06:36:20;9.47;;;6.83;;
15699;SDS011;7950;42.744;23.174;2023-04-30T06:38:50;7.97;;;6.67;;
15699;SDS011;7950;42.744;23.174;2023-04-30T06:41:19;12.47;;;7.13;;
15699;SDS011;7950;42.744;23.174;2023-04-30T06:43:47;10.07;;;6.23;;
15699;SDS011;7950;42.744;23.174;2023-04-30T06:46:16;9.00;;;7.07;;
15699;SDS011;7950;42.744;23.174;2023-04-30T06:48:44;8.67;;;6.27;;
15699;SDS011;7950;42.744;23.174;2023-04-30T06:51:13;9.07;;;6.70;;
15699;SDS011;7950;42.744;23.174;2023-04-30T06:53:41;8.20;;;6.27;;
15699;SDS011;7950;42.744;23.174;2023-04-30T06:56:11;9.07;;;6.63;;
15699;SDS011;7950;42.744;23.174;2023-04-30T06:58:39;7.73;;;5.83;;
15699;SDS011;7950;42.744;23.174;2023-04-30T07:01:08;8.27;;;6.03;;
15699;SDS011;7950;42.744;23.174;2023-04-30T07:03:36;10.77;;;6.47;;
15699;SDS011;7950;42.744;23.174;2023-04-30T07:06:05;13.00;;;7.33;;
15699;SDS011;7950;42.744;23.174;2023-04-30T07:08:34;10.30;;;6.40;;
15699;SDS011;7950;42.744;23.174;2023-04-30T07:11:02;9.47;;;5.73;;
15699;SDS011;7950;42.744;23.174;2023-04-30T07:13:32;7.57;;;5.70;;
15699;SDS011;7950;42.744;23.174;2023-04-30T07:16:01;6.17;;;5.23;;
15699;SDS011;7950;42.744;23.174;2023-04-30T07:18:29;6.17;;;5.20;;
15699;SDS011;7950;42.744;23.174;2023-04-30T07:20:58;6.13;;;5.10;;
15699;SDS011;7950;42.744;23.174;2023-04-30T07:23:26;8.53;;;5.93;;
15699;SDS011;7950;42.744;23.174;2023-04-30T07:25:56;8.50;;;4.70;;
15699;SDS011;7950;42.744;23.174;2023-04-30T07:28:24;6.67;;;4.60;;
15699;SDS011;7950;42.744;23.174;2023-04-30T07:30:54;8.63;;;5.17;;
15699;SDS011;7950;42.744;23.174;2023-04-30T07:33:22;8.83;;;5.30;;
15699;SDS011;7950;42.744;23.174;2023-04-30T07:35:51;7.20;;;4.90;;
15699;SDS011;7950;42.744;23.174;2023-04-30T07:38:21;5.53;;;4.47;;
15699;SDS011;7950;42.744;23.174;2023-04-30T07:40:50;8.60;;;4.90;;
15699;SDS011;7950;42.744;23.174;2023-04-30T07:43:19;13.50;;;5.40;;
15699;SDS011;7950;42.744;23.174;2023-04-30T07:48:43;7.83;;;4.30;;
15699;SDS011;7950;42.744;23.174;2023-04-30T07:51:11;5.90;;;4.53;;
15699;SDS011;7950;42.744;23.174;2023-04-30T07:53:40;4.90;;;3.97;;
15699;SDS011;7950;42.744;23.174;2023-04-30T07:56:27;6.27;;;4.43;;
15699;SDS011;7950;42.744;23.174;2023-04-30T07:58:55;4.30;;;3.90;;
15699;SDS011;7950;42.744;23.174;2023-04-30T08:01:25;5.80;;;4.23;;
15699;SDS011;7950;42.744;23.174;2023-04-30T08:03:54;7.07;;;4.33;;
15699;SDS011;7950;42.744;23.174;2023-04-30T08:06:31;4.80;;;4.23;;
15699;SDS011;7950;42.744;23.174;2023-04-30T08:09:00;8.60;;;4.90;;
15699;SDS011;7950;42.744;23.174;2023-04-30T08:11:29;8.80;;;4.17;;
15699;SDS011;7950;42.744;23.174;2023-04-30T08:13:58;6.80;;;4.67;;
15699;SDS011;7950;42.744;23.174;2023-04-30T08:16:28;5.03;;;4.53;;
15699;SDS011;7950;42.744;23.174;2023-04-30T08:18:57;4.57;;;4.00;;
15699;SDS011;7950;42.744;23.174;2023-04-30T08:21:26;7.80;;;4.07;;
15699;SDS011;7950;42.744;23.174;2023-04-30T08:23:55;5.03;;;4.20;;
15699;SDS011;7950;42.744;23.174;2023-04-30T08:26:42;7.70;;;4.17;;
15699;SDS011;7950;42.744;23.174;2023-04-30T08:29:14;5.77;;;3.83;;
15699;SDS011;7950;42.744;23.174;2023-04-30T08:31:44;4.87;;;3.80;;
15699;SDS011;7950;42.744;23.174;2023-04-30T08:34:13;5.83;;;3.73;;
15699;SDS011;7950;42.744;23.174;2023-04-30T08:39:43;7.27;;;3.63;;
15699;SDS011;7950;42.744;23.174;2023-04-30T08:42:12;3.80;;;3.50;;
15699;SDS011;7950;42.744;23.174;2023-04-30T08:44:49;5.80;;;3.90;;
15699;SDS011;7950;42.744;23.174;2023-04-30T08:50:12;4.37;;;4.00;;
15699;SDS011;7950;42.744;23.174;2023-04-30T08:52:40;5.40;;;3.90;;
15699;SDS011;7950;42.744;23.174;2023-04-30T08:55:10;4.60;;;4.13;;
15699;SDS011;7950;42.744;23.174;2023-04-30T08:57:44;6.73;;;4.40;;
15699;SDS011;7950;42.744;23.174;2023-04-30T09:00:13;5.60;;;4.67;;
15699;SDS011;7950;42.744;23.174;2023-04-30T09:02:43;5.43;;;4.60;;
15699;SDS011;7950;42.744;23.174;2023-04-30T09:05:14;8.53;;;5.33;;
15699;SDS011;7950;42.744;23.174;2023-04-30T09:07:43;4.57;;;4.17;;
15699;SDS011;7950;42.744;23.174;2023-04-30T09:10:30;4.73;;;4.17;;
15699;SDS011;7950;42.744;23.174;2023-04-30T09:13:01;4.50;;;4.10;;
15699;SDS011;7950;42.744;23.174;2023-04-30T09:15:32;4.53;;;4.13;;
15699;SDS011;7950;42.744;23.174;2023-04-30T09:20:57;3.97;;;3.53;;
15699;SDS011;7950;42.744;23.174;2023-04-30T09:23:28;3.80;;;3.50;;
15699;SDS011;7950;42.744;23.174;2023-04-30T09:25:57;4.77;;;3.93;;
15699;SDS011;7950;42.744;23.174;2023-04-30T09:28:26;4.33;;;3.90;;
15699;SDS011;7950;42.744;23.174;2023-04-30T09:30:55;4.33;;;3.90;;
15699;SDS011;7950;42.744;23.174;2023-04-30T09:33:26;4.67;;;4.03;;
15699;SDS011;7950;42.744;23.174;2023-04-30T09:35:55;4.20;;;3.90;;
15699;SDS011;7950;42.744;23.174;2023-04-30T09:38:25;5.87;;;3.50;;
15699;SDS011;7950;42.744;23.174;2023-04-30T09:40:56;5.20;;;3.57;;
15699;SDS011;7950;42.744;23.174;2023-04-30T09:46:20;3.97;;;3.67;;
15699;SDS011;7950;42.744;23.174;2023-04-30T09:48:58;5.33;;;4.03;;
15699;SDS011;7950;42.744;23.174;2023-04-30T09:51:28;4.23;;;3.80;;
15699;SDS011;7950;42.744;23.174;2023-04-30T09:53:57;5.70;;;4.13;;
15699;SDS011;7950;42.744;23.174;2023-04-30T09:59:26;4.07;;;3.40;;
15699;SDS011;7950;42.744;23.174;2023-04-30T10:01:58;6.37;;;4.10;;
15699;SDS011;7950;42.744;23.174;2023-04-30T10:04:30;6.10;;;4.37;;
15699;SDS011;7950;42.744;23.174;2023-04-30T10:07:03;5.23;;;4.07;;
15699;SDS011;7950;42.744;23.174;2023-04-30T10:09:38;8.03;;;4.47;;
15699;SDS011;7950;42.744;23.174;2023-04-30T10:12:11;7.63;;;4.33;;
15699;SDS011;7950;42.744;23.174;2023-04-30T10:14:44;3.90;;;3.50;;
15699;SDS011;7950;42.744;23.174;2023-04-30T10:17:20;4.60;;;4.20;;
15699;SDS011;7950;42.744;23.174;2023-04-30T10:19:56;6.43;;;4.10;;
15699;SDS011;7950;42.744;23.174;2023-04-30T10:22:31;4.87;;;4.30;;
15699;SDS011;7950;42.744;23.174;2023-04-30T10:25:02;4.10;;;3.60;;
15699;SDS011;7950;42.744;23.174;2023-04-30T10:27:33;2.90;;;2.70;;
15699;SDS011;7950;42.744;23.174;2023-04-30T10:30:02;2.90;;;2.70;;
15699;SDS011;7950;42.744;23.174;2023-04-30T10:32:32;3.20;;;2.80;;
15699;SDS011;7950;42.744;23.174;2023-04-30T10:35:11;3.40;;;3.10;;
15699;SDS011;7950;42.744;23.174;2023-04-30T10:37:46;3.93;;;3.53;;
15699;SDS011;7950;42.744;23.174;2023-04-30T10:40:21;4.70;;;4.30;;
15699;SDS011;7950;42.744;23.174;2023-04-30T10:42:53;4.27;;;3.87;;
15699;SDS011;7950;42.744;23.174;2023-04-30T10:45:33;4.57;;;4.17;;
15699;SDS011;7950;42.744;23.174;2023-04-30T10:48:03;3.53;;;3.23;;
15699;SDS011;7950;42.744;23.174;2023-04-30T10:50:39;3.67;;;3.37;;
15699;SDS011;7950;42.744;23.174;2023-04-30T10:56:08;4.67;;;4.27;;
15699;SDS011;7950;42.744;23.174;2023-04-30T10:58:37;4.60;;;4.20;;
15699;SDS011;7950;42.744;23.174;2023-04-30T11:01:07;4.47;;;3.73;;
15699;SDS011;7950;42.744;23.174;2023-04-30T11:03:39;3.53;;;3.23;;
15699;SDS011;7950;42.744;23.174;2023-04-30T11:06:11;3.77;;;3.30;;
15699;SDS011;7950;42.744;23.174;2023-04-30T11:08:45;4.53;;;4.13;;
15699;SDS011;7950;42.744;23.174;2023-04-30T11:11:16;4.23;;;3.80;;
15699;SDS011;7950;42.744;23.174;2023-04-30T11:13:51;4.10;;;3.70;;
15699;SDS011;7950;42.744;23.174;2023-04-30T11:16:27;4.33;;;3.73;;
15699;SDS011;7950;42.744;23.174;2023-04-30T11:19:04;4.33;;;3.93;;
15699;SDS011;7950;42.744;23.174;2023-04-30T11:21:40;5.40;;;3.87;;
15699;SDS011;7950;42.744;23.174;2023-04-30T11:24:09;3.80;;;3.43;;
15699;SDS011;7950;42.744;23.174;2023-04-30T11:29:40;5.03;;;4.17;;
15699;SDS011;7950;42.744;23.174;2023-04-30T11:32:12;4.87;;;4.17;;
15699;SDS011;7950;42.744;23.174;2023-04-30T11:34:42;4.27;;;3.80;;
15699;SDS011;7950;42.744;23.174;2023-04-30T11:37:12;4.07;;;3.50;;
15699;SDS011;7950;42.744;23.174;2023-04-30T11:40:00;4.33;;;3.73;;
15699;SDS011;7950;42.744;23.174;2023-04-30T11:45:26;5.17;;;3.17;;
15699;SDS011;7950;42.744;23.174;2023-04-30T11:47:56;4.23;;;2.60;;
15699;SDS011;7950;42.744;23.174;2023-04-30T11:50:25;7.70;;;3.50;;
15699;SDS011;7950;42.744;23.174;2023-04-30T11:53:00;3.27;;;2.90;;
15699;SDS011;7950;42.744;23.174;2023-04-30T11:55:39;4.70;;;2.73;;
15699;SDS011;7950;42.744;23.174;2023-04-30T11:58:08;3.70;;;2.87;;
15699;SDS011;7950;42.744;23.174;2023-04-30T12:00:36;4.10;;;2.83;;
15699;SDS011;7950;42.744;23.174;2023-04-30T12:03:05;3.83;;;2.63;;
15699;SDS011;7950;42.744;23.174;2023-04-30T12:05:34;3.23;;;2.40;;
15699;SDS011;7950;42.744;23.174;2023-04-30T12:08:04;3.57;;;2.53;;
15699;SDS011;7950;42.744;23.174;2023-04-30T12:10:35;3.63;;;2.50;;
15699;SDS011;7950;42.744;23.174;2023-04-30T12:13:03;2.80;;;2.60;;
15699;SDS011;7950;42.744;23.174;2023-04-30T12:15:32;4.17;;;3.63;;
15699;SDS011;7950;42.744;23.174;2023-04-30T12:18:09;4.13;;;3.50;;
15699;SDS011;7950;42.744;23.174;2023-04-30T12:20:40;4.17;;;3.03;;
15699;SDS011;7950;42.744;23.174;2023-04-30T12:23:11;3.40;;;2.77;;
15699;SDS011;7950;42.744;23.174;2023-04-30T12:25:40;3.23;;;2.90;;
15699;SDS011;7950;42.744;23.174;2023-04-30T12:28:09;4.60;;;2.90;;
15699;SDS011;7950;42.744;23.174;2023-04-30T12:30:38;4.00;;;2.90;;
15699;SDS011;7950;42.744;23.174;2023-04-30T12:33:09;4.67;;;3.37;;
15699;SDS011;7950;42.744;23.174;2023-04-30T12:35:40;4.47;;;3.10;;
15699;SDS011;7950;42.744;23.174;2023-04-30T12:38:10;6.60;;;3.30;;
15699;SDS011;7950;42.744;23.174;2023-04-30T12:40:45;3.43;;;2.20;;
15699;SDS011;7950;42.744;23.174;2023-04-30T12:43:15;2.53;;;2.10;;
15699;SDS011;7950;42.744;23.174;2023-04-30T12:45:45;1.73;;;1.63;;
15699;SDS011;7950;42.744;23.174;2023-04-30T12:48:18;1.47;;;1.37;;
15699;SDS011;7950;42.744;23.174;2023-04-30T12:50:52;1.77;;;1.63;;
15699;SDS011;7950;42.744;23.174;2023-04-30T12:53:24;2.33;;;1.40;;
15699;SDS011;7950;42.744;23.174;2023-04-30T12:56:06;2.13;;;1.30;;
15699;SDS011;7950;42.744;23.174;2023-04-30T12:58:37;1.33;;;1.23;;
15699;SDS011;7950;42.744;23.174;2023-04-30T13:01:09;1.60;;;1.50;;
15699;SDS011;7950;42.744;23.174;2023-04-30T13:03:39;1.50;;;1.40;;
15699;SDS011;7950;42.744;23.174;2023-04-30T13:06:08;3.67;;;1.90;;
15699;SDS011;7950;42.744;23.174;2023-04-30T13:08:38;2.97;;;1.40;;
15699;SDS011;7950;42.744;23.174;2023-04-30T13:11:23;3.17;;;1.37;;
15699;SDS011;7950;42.744;23.174;2023-04-30T13:13:53;2.40;;;1.30;;
15699;SDS011;7950;42.744;23.174;2023-04-30T13:16:22;1.40;;;1.30;;
15699;SDS011;7950;42.744;23.174;2023-04-30T13:18:51;1.40;;;1.30;;
15699;SDS011;7950;42.744;23.174;2023-04-30T13:21:20;1.27;;;1.20;;
15699;SDS011;7950;42.744;23.174;2023-04-30T13:23:51;1.30;;;1.20;;
15699;SDS011;7950;42.744;23.174;2023-04-30T13:26:22;2.20;;;1.60;;
15699;SDS011;7950;42.744;23.174;2023-04-30T13:28:51;1.30;;;1.20;;
15699;SDS011;7950;42.744;23.174;2023-04-30T13:31:20;1.77;;;1.67;;
15699;SDS011;7950;42.744;23.174;2023-04-30T13:33:48;2.00;;;1.90;;
15699;SDS011;7950;42.744;23.174;2023-04-30T13:36:17;2.13;;;1.87;;
15699;SDS011;7950;42.744;23.174;2023-04-30T13:38:46;4.33;;;2.00;;
15699;SDS011;7950;42.744;23.174;2023-04-30T13:41:16;2.20;;;1.97;;
15699;SDS011;7950;42.744;23.174;2023-04-30T13:43:46;3.10;;;2.20;;
15699;SDS011;7950;42.744;23.174;2023-04-30T13:46:14;1.80;;;1.70;;
15699;SDS011;7950;42.744;23.174;2023-04-30T13:48:43;2.63;;;1.90;;
15699;SDS011;7950;42.744;23.174;2023-04-30T13:51:18;2.87;;;2.00;;
15699;SDS011;7950;42.744;23.174;2023-04-30T13:53:49;1.93;;;1.60;;
15699;SDS011;7950;42.744;23.174;2023-04-30T13:56:19;2.00;;;1.90;;
15699;SDS011;7950;42.744;23.174;2023-04-30T13:58:48;2.63;;;2.43;;
15699;SDS011;7950;42.744;23.174;2023-04-30T14:01:16;3.47;;;2.47;;
15699;SDS011;7950;42.744;23.174;2023-04-30T14:03:45;4.03;;;2.63;;
15699;SDS011;7950;42.744;23.174;2023-04-30T14:06:13;3.57;;;2.70;;
15699;SDS011;7950;42.744;23.174;2023-04-30T14:08:42;3.10;;;2.80;;
15699;SDS011;7950;42.744;23.174;2023-04-30T14:11:11;8.60;;;5.03;;
15699;SDS011;7950;42.744;23.174;2023-04-30T14:13:41;4.70;;;2.93;;
15699;SDS011;7950;42.744;23.174;2023-04-30T14:19:03;2.90;;;2.70;;
15699;SDS011;7950;42.744;23.174;2023-04-30T14:21:31;3.30;;;2.90;;
15699;SDS011;7950;42.744;23.174;2023-04-30T14:24:00;3.20;;;2.83;;
15699;SDS011;7950;42.744;23.174;2023-04-30T14:26:28;2.77;;;2.57;;
15699;SDS011;7950;42.744;23.174;2023-04-30T14:28:59;3.07;;;2.77;;
15699;SDS011;7950;42.744;23.174;2023-04-30T14:31:27;2.63;;;2.40;;
15699;SDS011;7950;42.744;23.174;2023-04-30T14:33:56;2.60;;;2.40;;
15699;SDS011;7950;42.744;23.174;2023-04-30T14:36:24;2.97;;;2.67;;
15699;SDS011;7950;42.744;23.174;2023-04-30T14:38:53;2.60;;;2.40;;
15699;SDS011;7950;42.744;23.174;2023-04-30T14:41:22;2.60;;;2.30;;
15699;SDS011;7950;42.744;23.174;2023-04-30T14:43:51;2.83;;;2.20;;
15699;SDS011;7950;42.744;23.174;2023-04-30T14:46:20;3.23;;;2.33;;
15699;SDS011;7950;42.744;23.174;2023-04-30T14:48:49;2.80;;;2.20;;
15699;SDS011;7950;42.744;23.174;2023-04-30T14:51:18;2.93;;;2.50;;
15699;SDS011;7950;42.744;23.174;2023-04-30T14:53:46;2.90;;;2.70;;
15699;SDS011;7950;42.744;23.174;2023-04-30T14:56:15;3.00;;;2.47;;
15699;SDS011;7950;42.744;23.174;2023-04-30T14:58:43;2.87;;;2.60;;
15699;SDS011;7950;42.744;23.174;2023-04-30T15:01:12;3.00;;;2.30;;
15699;SDS011;7950;42.744;23.174;2023-04-30T15:03:42;3.33;;;2.37;;
15699;SDS011;7950;42.744;23.174;2023-04-30T15:06:11;2.63;;;2.30;;
15699;SDS011;7950;42.744;23.174;2023-04-30T15:08:40;2.40;;;2.20;;
15699;SDS011;7950;42.744;23.174;2023-04-30T15:11:09;2.30;;;2.10;;
15699;SDS011;7950;42.744;23.174;2023-04-30T15:13:38;2.10;;;2.00;;
15699;SDS011;7950;42.744;23.174;2023-04-30T15:16:07;5.80;;;3.23;;
15699;SDS011;7950;42.744;23.174;2023-04-30T15:18:35;3.33;;;2.70;;
15699;SDS011;7950;42.744;23.174;2023-04-30T15:21:07;3.90;;;3.40;;
15699;SDS011;7950;42.744;23.174;2023-04-30T15:23:36;3.83;;;3.00;;
15699;SDS011;7950;42.744;23.174;2023-04-30T15:26:04;3.87;;;3.57;;
15699;SDS011;7950;42.744;23.174;2023-04-30T15:28:33;3.93;;;3.20;;
15699;SDS011;7950;42.744;23.174;2023-04-30T15:31:02;4.60;;;3.40;;
15699;SDS011;7950;42.744;23.174;2023-04-30T15:33:31;2.87;;;2.23;;
15699;SDS011;7950;42.744;23.174;2023-04-30T15:36:06;2.70;;;2.50;;
15699;SDS011;7950;42.744;23.174;2023-04-30T15:38:36;2.80;;;2.50;;
15699;SDS011;7950;42.744;23.174;2023-04-30T15:41:04;3.30;;;3.00;;
15699;SDS011;7950;42.744;23.174;2023-04-30T15:43:33;3.80;;;2.80;;
15699;SDS011;7950;42.744;23.174;2023-04-30T15:46:03;3.00;;;2.70;;
15699;SDS011;7950;42.744;23.174;2023-04-30T15:48:31;3.20;;;2.90;;
15699;SDS011;7950;42.744;23.174;2023-04-30T15:51:01;3.20;;;2.80;;
15699;SDS011;7950;42.744;23.174;2023-04-30T15:53:37;3.53;;;2.97;;